sensor_id;sensor_type;location;lat;lon;timestamp;P1;durP1;ratioP1;P2;durP2;ratioP2
7493;SDS011;3788;49.902;8.590;2022-11-11T00:00:48;11.30;;;6.90;;
7493;SDS011;3788;49.902;8.590;2022-11-11T00:03:15;10.33;;;6.40;;
7493;SDS011;3788;49.902;8.590;2022-11-11T00:05:43;9.10;;;5.80;;
7493;SDS011;3788;49.902;8.590;2022-11-11T00:08:10;8.03;;;5.40;;
7493;SDS011;3788;49.902;8.590;2022-11-11T00:10:36;8.17;;;5.20;;
7493;SDS011;3788;49.902;8.590;2022-11-11T00:13:03;7.63;;;5.77;;
7493;SDS011;3788;49.902;8.590;2022-11-11T00:15:30;8.63;;;5.60;;
7493;SDS011;3788;49.902;8.590;2022-11-11T00:18:01;6.63;;;5.27;;
7493;SDS011;3788;49.902;8.590;2022-11-11T00:20:47;8.47;;;6.03;;
7493;SDS011;3788;49.902;8.590;2022-11-11T00:23:31;8.17;;;4.87;;
7493;SDS011;3788;49.902;8.590;2022-11-11T00:26:15;6.63;;;4.73;;
7493;SDS011;3788;49.902;8.590;2022-11-11T00:28:42;5.83;;;4.77;;
7493;SDS011;3788;49.902;8.590;2022-11-11T00:31:09;5.60;;;4.30;;
7493;SDS011;3788;49.902;8.590;2022-11-11T00:33:37;6.07;;;3.77;;
7493;SDS011;3788;49.902;8.590;2022-11-11T00:36:06;5.27;;;4.70;;
7493;SDS011;3788;49.902;8.590;2022-11-11T00:38:32;5.73;;;4.43;;
7493;SDS011;3788;49.902;8.590;2022-11-11T00:41:11;5.80;;;4.17;;
7493;SDS011;3788;49.902;8.590;2022-11-11T00:43:38;4.87;;;4.00;;
7493;SDS011;3788;49.902;8.590;2022-11-11T00:46:05;4.87;;;3.60;;
7493;SDS011;3788;49.902;8.590;2022-11-11T00:48:49;4.33;;;3.83;;
7493;SDS011;3788;49.902;8.590;2022-11-11T00:51:35;5.30;;;4.50;;
7493;SDS011;3788;49.902;8.590;2022-11-11T00:54:01;4.40;;;3.60;;
7493;SDS011;3788;49.902;8.590;2022-11-11T00:56:29;4.20;;;3.60;;
7493;SDS011;3788;49.902;8.590;2022-11-11T00:58:56;3.70;;;3.23;;
7493;SDS011;3788;49.902;8.590;2022-11-11T01:01:22;3.97;;;3.57;;
7493;SDS011;3788;49.902;8.590;2022-11-11T01:03:49;5.27;;;3.60;;
7493;SDS011;3788;49.902;8.590;2022-11-11T01:06:16;4.43;;;3.20;;
7493;SDS011;3788;49.902;8.590;2022-11-11T01:08:44;6.63;;;3.57;;
7493;SDS011;3788;49.902;8.590;2022-11-11T01:11:11;4.20;;;3.43;;
7493;SDS011;3788;49.902;8.590;2022-11-11T01:13:39;4.57;;;3.33;;
7493;SDS011;3788;49.902;8.590;2022-11-11T01:16:07;3.97;;;3.57;;
7493;SDS011;3788;49.902;8.590;2022-11-11T01:18:36;3.50;;;3.03;;
7493;SDS011;3788;49.902;8.590;2022-11-11T01:21:03;3.70;;;3.10;;
7493;SDS011;3788;49.902;8.590;2022-11-11T01:23:31;4.47;;;3.13;;
7493;SDS011;3788;49.902;8.590;2022-11-11T01:26:02;3.77;;;3.40;;
7493;SDS011;3788;49.902;8.590;2022-11-11T01:28:30;3.17;;;2.87;;
7493;SDS011;3788;49.902;8.590;2022-11-11T01:31:00;3.97;;;3.20;;
7493;SDS011;3788;49.902;8.590;2022-11-11T01:33:29;3.90;;;2.97;;
7493;SDS011;3788;49.902;8.590;2022-11-11T01:36:00;3.90;;;3.00;;
7493;SDS011;3788;49.902;8.590;2022-11-11T01:38:28;2.90;;;2.60;;
7493;SDS011;3788;49.902;8.590;2022-11-11T01:40:55;3.37;;;3.07;;
7493;SDS011;3788;49.902;8.590;2022-11-11T01:43:23;3.57;;;2.70;;
7493;SDS011;3788;49.902;8.590;2022-11-11T01:45:54;3.20;;;2.90;;
7493;SDS011;3788;49.902;8.590;2022-11-11T01:48:26;4.53;;;3.60;;
7493;SDS011;3788;49.902;8.590;2022-11-11T01:51:16;3.57;;;3.27;;
7493;SDS011;3788;49.902;8.590;2022-11-11T01:53:50;3.33;;;3.03;;
7493;SDS011;3788;49.902;8.590;2022-11-11T01:56:22;4.10;;;3.70;;
7493;SDS011;3788;49.902;8.590;2022-11-11T01:58:50;4.70;;;3.73;;
7493;SDS011;3788;49.902;8.590;2022-11-11T02:01:20;3.80;;;3.10;;
7493;SDS011;3788;49.902;8.590;2022-11-11T02:03:48;3.63;;;3.00;;
7493;SDS011;3788;49.902;8.590;2022-11-11T02:06:30;3.80;;;3.33;;
7493;SDS011;3788;49.902;8.590;2022-11-11T02:08:58;5.00;;;4.00;;
7493;SDS011;3788;49.902;8.590;2022-11-11T02:11:25;4.30;;;3.50;;
7493;SDS011;3788;49.902;8.590;2022-11-11T02:14:12;4.40;;;3.70;;
7493;SDS011;3788;49.902;8.590;2022-11-11T02:16:56;4.67;;;3.70;;
7493;SDS011;3788;49.902;8.590;2022-11-11T02:19:25;4.43;;;3.77;;
7493;SDS011;3788;49.902;8.590;2022-11-11T02:22:01;4.27;;;3.83;;
7493;SDS011;3788;49.902;8.590;2022-11-11T02:24:31;4.10;;;3.70;;
7493;SDS011;3788;49.902;8.590;2022-11-11T02:26:58;4.13;;;3.60;;
7493;SDS011;3788;49.902;8.590;2022-11-11T02:29:28;4.13;;;3.63;;
7493;SDS011;3788;49.902;8.590;2022-11-11T02:31:55;4.40;;;4.00;;
7493;SDS011;3788;49.902;8.590;2022-11-11T02:34:27;5.17;;;4.27;;
7493;SDS011;3788;49.902;8.590;2022-11-11T02:36:55;4.67;;;3.50;;
7493;SDS011;3788;49.902;8.590;2022-11-11T02:39:23;4.73;;;3.67;;
7493;SDS011;3788;49.902;8.590;2022-11-11T02:41:52;4.40;;;3.97;;
7493;SDS011;3788;49.902;8.590;2022-11-11T02:44:22;4.97;;;3.67;;
7493;SDS011;3788;49.902;8.590;2022-11-11T02:46:48;4.37;;;3.60;;
7493;SDS011;3788;49.902;8.590;2022-11-11T02:49:15;3.50;;;3.03;;
7493;SDS011;3788;49.902;8.590;2022-11-11T02:51:42;4.90;;;4.17;;
7493;SDS011;3788;49.902;8.590;2022-11-11T02:54:08;4.00;;;3.57;;
7493;SDS011;3788;49.902;8.590;2022-11-11T02:56:35;4.60;;;3.77;;
7493;SDS011;3788;49.902;8.590;2022-11-11T02:59:21;4.20;;;3.80;;
7493;SDS011;3788;49.902;8.590;2022-11-11T03:01:47;4.37;;;3.97;;
7493;SDS011;3788;49.902;8.590;2022-11-11T03:04:14;5.83;;;3.97;;
7493;SDS011;3788;49.902;8.590;2022-11-11T03:06:41;6.10;;;4.73;;
7493;SDS011;3788;49.902;8.590;2022-11-11T03:09:07;7.23;;;4.67;;
7493;SDS011;3788;49.902;8.590;2022-11-11T03:11:34;6.80;;;5.30;;
7493;SDS011;3788;49.902;8.590;2022-11-11T03:14:02;7.17;;;5.47;;
7493;SDS011;3788;49.902;8.590;2022-11-11T03:16:31;8.67;;;6.47;;
7493;SDS011;3788;49.902;8.590;2022-11-11T03:19:15;9.63;;;6.23;;
7493;SDS011;3788;49.902;8.590;2022-11-11T03:21:42;7.03;;;5.73;;
7493;SDS011;3788;49.902;8.590;2022-11-11T03:24:09;7.90;;;5.43;;
7493;SDS011;3788;49.902;8.590;2022-11-11T03:26:36;6.97;;;5.53;;
7493;SDS011;3788;49.902;8.590;2022-11-11T03:29:02;9.13;;;5.90;;
7493;SDS011;3788;49.902;8.590;2022-11-11T03:31:30;9.53;;;5.93;;
7493;SDS011;3788;49.902;8.590;2022-11-11T03:33:57;8.47;;;4.83;;
7493;SDS011;3788;49.902;8.590;2022-11-11T03:36:42;7.37;;;5.37;;
7493;SDS011;3788;49.902;8.590;2022-11-11T03:39:26;11.37;;;6.40;;
7493;SDS011;3788;49.902;8.590;2022-11-11T03:41:53;11.17;;;6.03;;
7493;SDS011;3788;49.902;8.590;2022-11-11T03:44:20;11.73;;;6.57;;
7493;SDS011;3788;49.902;8.590;2022-11-11T03:46:48;11.83;;;6.83;;
7493;SDS011;3788;49.902;8.590;2022-11-11T03:49:14;10.13;;;6.00;;
7493;SDS011;3788;49.902;8.590;2022-11-11T03:51:41;10.83;;;6.80;;
7493;SDS011;3788;49.902;8.590;2022-11-11T03:54:08;8.43;;;6.17;;
7493;SDS011;3788;49.902;8.590;2022-11-11T03:56:35;9.83;;;5.90;;
7493;SDS011;3788;49.902;8.590;2022-11-11T03:59:01;8.37;;;5.70;;
7493;SDS011;3788;49.902;8.590;2022-11-11T04:01:28;8.63;;;5.27;;
7493;SDS011;3788;49.902;8.590;2022-11-11T04:04:14;7.50;;;5.00;;
7493;SDS011;3788;49.902;8.590;2022-11-11T04:06:58;8.60;;;5.17;;
7493;SDS011;3788;49.902;8.590;2022-11-11T04:09:42;6.63;;;4.83;;
7493;SDS011;3788;49.902;8.590;2022-11-11T04:12:26;6.07;;;4.60;;
7493;SDS011;3788;49.902;8.590;2022-11-11T04:14:55;5.40;;;4.63;;
7493;SDS011;3788;49.902;8.590;2022-11-11T04:17:39;4.93;;;4.20;;
7493;SDS011;3788;49.902;8.590;2022-11-11T04:20:08;4.90;;;3.90;;
7493;SDS011;3788;49.902;8.590;2022-11-11T04:22:53;5.77;;;4.80;;
7493;SDS011;3788;49.902;8.590;2022-11-11T04:25:20;5.43;;;4.77;;
7493;SDS011;3788;49.902;8.590;2022-11-11T04:28:12;5.37;;;4.33;;
7493;SDS011;3788;49.902;8.590;2022-11-11T04:30:57;5.50;;;4.47;;
7493;SDS011;3788;49.902;8.590;2022-11-11T04:33:23;5.03;;;4.40;;
7493;SDS011;3788;49.902;8.590;2022-11-11T04:35:50;5.57;;;4.10;;
7493;SDS011;3788;49.902;8.590;2022-11-11T04:38:17;4.80;;;4.30;;
7493;SDS011;3788;49.902;8.590;2022-11-11T04:41:10;5.57;;;4.73;;
7493;SDS011;3788;49.902;8.590;2022-11-11T04:43:37;4.47;;;4.07;;
7493;SDS011;3788;49.902;8.590;2022-11-11T04:46:17;4.13;;;3.73;;
7493;SDS011;3788;49.902;8.590;2022-11-11T04:48:44;3.87;;;3.50;;
7493;SDS011;3788;49.902;8.590;2022-11-11T04:51:12;4.30;;;3.90;;
7493;SDS011;3788;49.902;8.590;2022-11-11T04:53:39;3.97;;;3.60;;
7493;SDS011;3788;49.902;8.590;2022-11-11T04:56:07;4.47;;;4.07;;
7493;SDS011;3788;49.902;8.590;2022-11-11T04:58:51;3.73;;;3.37;;
7493;SDS011;3788;49.902;8.590;2022-11-11T05:01:38;4.17;;;3.70;;
7493;SDS011;3788;49.902;8.590;2022-11-11T05:04:22;4.80;;;4.30;;
7493;SDS011;3788;49.902;8.590;2022-11-11T05:06:50;4.83;;;4.40;;
7493;SDS011;3788;49.902;8.590;2022-11-11T05:09:34;4.30;;;3.90;;
7493;SDS011;3788;49.902;8.590;2022-11-11T05:12:01;4.83;;;4.43;;
7493;SDS011;3788;49.902;8.590;2022-11-11T05:14:28;4.33;;;3.93;;
7493;SDS011;3788;49.902;8.590;2022-11-11T05:17:13;4.30;;;3.90;;
7493;SDS011;3788;49.902;8.590;2022-11-11T05:19:57;4.80;;;4.30;;
7493;SDS011;3788;49.902;8.590;2022-11-11T05:22:43;5.53;;;4.77;;
7493;SDS011;3788;49.902;8.590;2022-11-11T05:25:10;6.20;;;4.87;;
7493;SDS011;3788;49.902;8.590;2022-11-11T05:27:54;5.17;;;4.57;;
7493;SDS011;3788;49.902;8.590;2022-11-11T05:30:22;5.37;;;4.60;;
7493;SDS011;3788;49.902;8.590;2022-11-11T05:32:50;5.80;;;5.20;;
7493;SDS011;3788;49.902;8.590;2022-11-11T05:35:19;5.53;;;4.33;;
7493;SDS011;3788;49.902;8.590;2022-11-11T05:37:47;6.60;;;5.50;;
7493;SDS011;3788;49.902;8.590;2022-11-11T05:40:34;6.40;;;5.20;;
7493;SDS011;3788;49.902;8.590;2022-11-11T05:43:01;5.73;;;4.93;;
7493;SDS011;3788;49.902;8.590;2022-11-11T05:45:28;5.63;;;5.07;;
7493;SDS011;3788;49.902;8.590;2022-11-11T05:47:59;5.90;;;5.30;;
7493;SDS011;3788;49.902;8.590;2022-11-11T05:50:26;6.87;;;5.20;;
7493;SDS011;3788;49.902;8.590;2022-11-11T05:52:54;5.20;;;4.70;;
7493;SDS011;3788;49.902;8.590;2022-11-11T05:55:21;5.43;;;4.37;;
7493;SDS011;3788;49.902;8.590;2022-11-11T05:57:48;4.70;;;4.27;;
7493;SDS011;3788;49.902;8.590;2022-11-11T06:00:15;7.70;;;4.80;;
7493;SDS011;3788;49.902;8.590;2022-11-11T06:02:42;5.93;;;4.77;;
7493;SDS011;3788;49.902;8.590;2022-11-11T06:05:09;4.70;;;4.00;;
7493;SDS011;3788;49.902;8.590;2022-11-11T06:07:37;6.33;;;5.10;;
7493;SDS011;3788;49.902;8.590;2022-11-11T06:10:06;6.63;;;5.03;;
7493;SDS011;3788;49.902;8.590;2022-11-11T06:12:57;8.37;;;5.17;;
7493;SDS011;3788;49.902;8.590;2022-11-11T06:15:29;7.77;;;6.53;;
7493;SDS011;3788;49.902;8.590;2022-11-11T06:17:57;7.70;;;5.63;;
7493;SDS011;3788;49.902;8.590;2022-11-11T06:20:24;6.23;;;4.97;;
7493;SDS011;3788;49.902;8.590;2022-11-11T06:22:51;7.07;;;4.77;;
7493;SDS011;3788;49.902;8.590;2022-11-11T06:25:26;6.83;;;5.00;;
7493;SDS011;3788;49.902;8.590;2022-11-11T06:28:11;5.77;;;4.73;;
7493;SDS011;3788;49.902;8.590;2022-11-11T06:30:38;6.17;;;4.53;;
7493;SDS011;3788;49.902;8.590;2022-11-11T06:33:06;5.40;;;4.50;;
7493;SDS011;3788;49.902;8.590;2022-11-11T06:35:33;6.18;;;5.13;;
7493;SDS011;3788;49.902;8.590;2022-11-11T06:38:03;6.53;;;5.33;;
7493;SDS011;3788;49.902;8.590;2022-11-11T06:40:32;4.87;;;4.17;;
7493;SDS011;3788;49.902;8.590;2022-11-11T06:42:59;6.10;;;4.63;;
7493;SDS011;3788;49.902;8.590;2022-11-11T06:45:26;8.80;;;5.60;;
7493;SDS011;3788;49.902;8.590;2022-11-11T06:47:54;8.47;;;5.47;;
7493;SDS011;3788;49.902;8.590;2022-11-11T06:50:21;6.30;;;4.93;;
7493;SDS011;3788;49.902;8.590;2022-11-11T06:52:48;6.70;;;5.30;;
7493;SDS011;3788;49.902;8.590;2022-11-11T06:55:15;5.63;;;5.00;;
7493;SDS011;3788;49.902;8.590;2022-11-11T06:57:43;5.53;;;4.30;;
7493;SDS011;3788;49.902;8.590;2022-11-11T07:00:10;6.03;;;4.70;;
7493;SDS011;3788;49.902;8.590;2022-11-11T07:02:40;5.80;;;4.80;;
7493;SDS011;3788;49.902;8.590;2022-11-11T07:05:07;7.30;;;4.80;;
7493;SDS011;3788;49.902;8.590;2022-11-11T07:07:34;5.37;;;3.90;;
7493;SDS011;3788;49.902;8.590;2022-11-11T07:10:01;5.57;;;4.27;;
7493;SDS011;3788;49.902;8.590;2022-11-11T07:12:31;5.70;;;3.67;;
7493;SDS011;3788;49.902;8.590;2022-11-11T07:14:59;6.27;;;4.27;;
7493;SDS011;3788;49.902;8.590;2022-11-11T07:17:26;6.30;;;4.50;;
7493;SDS011;3788;49.902;8.590;2022-11-11T07:19:52;5.30;;;4.13;;
7493;SDS011;3788;49.902;8.590;2022-11-11T07:22:19;5.70;;;4.80;;
7493;SDS011;3788;49.902;8.590;2022-11-11T07:24:46;4.87;;;4.03;;
7493;SDS011;3788;49.902;8.590;2022-11-11T07:27:12;5.53;;;4.53;;
7493;SDS011;3788;49.902;8.590;2022-11-11T07:29:39;5.50;;;4.13;;
7493;SDS011;3788;49.902;8.590;2022-11-11T07:32:07;6.23;;;3.90;;
7493;SDS011;3788;49.902;8.590;2022-11-11T07:34:34;7.37;;;3.83;;
7493;SDS011;3788;49.902;8.590;2022-11-11T07:37:01;5.43;;;3.93;;
7493;SDS011;3788;49.902;8.590;2022-11-11T07:39:27;5.53;;;4.33;;
7493;SDS011;3788;49.902;8.590;2022-11-11T07:41:54;5.50;;;4.60;;
7493;SDS011;3788;49.902;8.590;2022-11-11T07:44:21;5.37;;;4.27;;
7493;SDS011;3788;49.902;8.590;2022-11-11T07:46:47;5.60;;;4.23;;
7493;SDS011;3788;49.902;8.590;2022-11-11T07:49:16;5.50;;;4.67;;
7493;SDS011;3788;49.902;8.590;2022-11-11T07:51:43;6.30;;;4.00;;
7493;SDS011;3788;49.902;8.590;2022-11-11T07:54:11;5.17;;;4.60;;
7493;SDS011;3788;49.902;8.590;2022-11-11T07:56:38;5.10;;;4.07;;
7493;SDS011;3788;49.902;8.590;2022-11-11T07:59:04;6.73;;;4.27;;
7493;SDS011;3788;49.902;8.590;2022-11-11T08:01:31;5.37;;;4.20;;
7493;SDS011;3788;49.902;8.590;2022-11-11T08:03:58;8.90;;;5.50;;
7493;SDS011;3788;49.902;8.590;2022-11-11T08:06:26;6.43;;;4.90;;
7493;SDS011;3788;49.902;8.590;2022-11-11T08:08:53;6.30;;;5.07;;
7493;SDS011;3788;49.902;8.590;2022-11-11T08:11:20;5.07;;;4.20;;
7493;SDS011;3788;49.902;8.590;2022-11-11T08:14:00;7.43;;;5.30;;
7493;SDS011;3788;49.902;8.590;2022-11-11T08:16:27;8.60;;;5.27;;
7493;SDS011;3788;49.902;8.590;2022-11-11T08:18:54;7.77;;;5.20;;
7493;SDS011;3788;49.902;8.590;2022-11-11T08:21:23;6.30;;;4.70;;
7493;SDS011;3788;49.902;8.590;2022-11-11T08:23:51;6.43;;;5.00;;
7493;SDS011;3788;49.902;8.590;2022-11-11T08:26:18;9.17;;;5.83;;
7493;SDS011;3788;49.902;8.590;2022-11-11T08:28:46;7.00;;;4.97;;
7493;SDS011;3788;49.902;8.590;2022-11-11T08:31:14;7.03;;;5.60;;
7493;SDS011;3788;49.902;8.590;2022-11-11T08:33:41;7.23;;;4.90;;
7493;SDS011;3788;49.902;8.590;2022-11-11T08:36:08;6.17;;;4.33;;
7493;SDS011;3788;49.902;8.590;2022-11-11T08:38:35;6.77;;;4.50;;
7493;SDS011;3788;49.902;8.590;2022-11-11T08:41:04;6.57;;;5.00;;
7493;SDS011;3788;49.902;8.590;2022-11-11T08:43:32;8.03;;;5.00;;
7493;SDS011;3788;49.902;8.590;2022-11-11T08:45:59;6.77;;;5.00;;
7493;SDS011;3788;49.902;8.590;2022-11-11T08:48:28;6.63;;;4.60;;
7493;SDS011;3788;49.902;8.590;2022-11-11T08:50:55;9.00;;;5.40;;
7493;SDS011;3788;49.902;8.590;2022-11-11T08:53:22;8.70;;;5.53;;
7493;SDS011;3788;49.902;8.590;2022-11-11T08:55:49;9.50;;;6.13;;
7493;SDS011;3788;49.902;8.590;2022-11-11T08:58:17;11.43;;;6.07;;
7493;SDS011;3788;49.902;8.590;2022-11-11T09:00:44;8.83;;;6.07;;
7493;SDS011;3788;49.902;8.590;2022-11-11T09:03:17;11.17;;;6.17;;
7493;SDS011;3788;49.902;8.590;2022-11-11T09:05:47;11.03;;;6.10;;
7493;SDS011;3788;49.902;8.590;2022-11-11T09:08:16;11.17;;;6.27;;
7493;SDS011;3788;49.902;8.590;2022-11-11T09:10:43;10.70;;;6.87;;
7493;SDS011;3788;49.902;8.590;2022-11-11T09:13:09;11.13;;;6.77;;
7493;SDS011;3788;49.902;8.590;2022-11-11T09:15:37;11.80;;;6.37;;
7493;SDS011;3788;49.902;8.590;2022-11-11T09:18:07;12.57;;;7.30;;
7493;SDS011;3788;49.902;8.590;2022-11-11T09:20:34;9.90;;;6.47;;
7493;SDS011;3788;49.902;8.590;2022-11-11T09:23:02;14.17;;;8.43;;
7493;SDS011;3788;49.902;8.590;2022-11-11T09:25:31;11.50;;;7.13;;
7493;SDS011;3788;49.902;8.590;2022-11-11T09:28:00;10.10;;;6.87;;
7493;SDS011;3788;49.902;8.590;2022-11-11T09:30:27;10.33;;;6.97;;
7493;SDS011;3788;49.902;8.590;2022-11-11T09:33:01;11.20;;;6.90;;
7493;SDS011;3788;49.902;8.590;2022-11-11T09:35:28;8.90;;;6.17;;
7493;SDS011;3788;49.902;8.590;2022-11-11T09:37:58;10.63;;;6.87;;
7493;SDS011;3788;49.902;8.590;2022-11-11T09:40:27;10.37;;;7.23;;
7493;SDS011;3788;49.902;8.590;2022-11-11T09:43:08;10.60;;;6.80;;
7493;SDS011;3788;49.902;8.590;2022-11-11T09:45:43;9.30;;;6.73;;
7493;SDS011;3788;49.902;8.590;2022-11-11T09:48:32;13.10;;;8.47;;
7493;SDS011;3788;49.902;8.590;2022-11-11T09:51:14;12.37;;;7.43;;
7493;SDS011;3788;49.902;8.590;2022-11-11T09:53:43;11.87;;;8.33;;
7493;SDS011;3788;49.902;8.590;2022-11-11T09:56:16;14.70;;;8.97;;
7493;SDS011;3788;49.902;8.590;2022-11-11T09:58:45;12.03;;;8.30;;
7493;SDS011;3788;49.902;8.590;2022-11-11T10:01:16;13.73;;;7.93;;
7493;SDS011;3788;49.902;8.590;2022-11-11T10:03:49;12.20;;;8.17;;
7493;SDS011;3788;49.902;8.590;2022-11-11T10:06:25;16.10;;;8.53;;
7493;SDS011;3788;49.902;8.590;2022-11-11T10:08:55;13.33;;;7.97;;
7493;SDS011;3788;49.902;8.590;2022-11-11T10:11:28;11.13;;;7.47;;
7493;SDS011;3788;49.902;8.590;2022-11-11T10:14:04;13.27;;;8.17;;
7493;SDS011;3788;49.902;8.590;2022-11-11T10:16:32;15.03;;;8.03;;
7493;SDS011;3788;49.902;8.590;2022-11-11T10:19:11;13.73;;;9.73;;
7493;SDS011;3788;49.902;8.590;2022-11-11T10:21:48;14.33;;;8.97;;
7493;SDS011;3788;49.902;8.590;2022-11-11T10:24:19;14.93;;;9.33;;
7493;SDS011;3788;49.902;8.590;2022-11-11T10:26:52;12.73;;;7.90;;
7493;SDS011;3788;49.902;8.590;2022-11-11T10:29:19;11.50;;;8.00;;
7493;SDS011;3788;49.902;8.590;2022-11-11T10:31:51;11.03;;;7.53;;
7493;SDS011;3788;49.902;8.590;2022-11-11T10:34:24;13.07;;;8.80;;
7493;SDS011;3788;49.902;8.590;2022-11-11T10:36:58;13.27;;;8.47;;
7493;SDS011;3788;49.902;8.590;2022-11-11T10:39:26;9.30;;;7.37;;
7493;SDS011;3788;49.902;8.590;2022-11-11T10:42:04;10.20;;;6.73;;
7493;SDS011;3788;49.902;8.590;2022-11-11T10:44:40;10.30;;;7.13;;
7493;SDS011;3788;49.902;8.590;2022-11-11T10:47:09;9.87;;;6.80;;
7493;SDS011;3788;49.902;8.590;2022-11-11T10:49:43;9.43;;;6.97;;
7493;SDS011;3788;49.902;8.590;2022-11-11T10:52:19;12.87;;;8.33;;
7493;SDS011;3788;49.902;8.590;2022-11-11T10:54:50;14.27;;;9.60;;
7493;SDS011;3788;49.902;8.590;2022-11-11T10:57:23;10.80;;;8.07;;
7493;SDS011;3788;49.902;8.590;2022-11-11T10:59:55;10.00;;;7.33;;
7493;SDS011;3788;49.902;8.590;2022-11-11T11:02:27;13.07;;;8.67;;
7493;SDS011;3788;49.902;8.590;2022-11-11T11:05:00;10.37;;;7.43;;
7493;SDS011;3788;49.902;8.590;2022-11-11T11:07:33;11.57;;;7.30;;
7493;SDS011;3788;49.902;8.590;2022-11-11T11:10:07;11.50;;;8.07;;
7493;SDS011;3788;49.902;8.590;2022-11-11T11:12:40;11.00;;;7.97;;
7493;SDS011;3788;49.902;8.590;2022-11-11T11:15:13;12.70;;;7.83;;
7493;SDS011;3788;49.902;8.590;2022-11-11T11:17:46;10.63;;;8.37;;
7493;SDS011;3788;49.902;8.590;2022-11-11T11:20:18;11.10;;;8.03;;
7493;SDS011;3788;49.902;8.590;2022-11-11T11:22:47;13.40;;;7.83;;
7493;SDS011;3788;49.902;8.590;2022-11-11T11:25:16;11.37;;;7.47;;
7493;SDS011;3788;49.902;8.590;2022-11-11T11:27:44;12.40;;;8.60;;
7493;SDS011;3788;49.902;8.590;2022-11-11T11:30:12;13.40;;;8.93;;
7493;SDS011;3788;49.902;8.590;2022-11-11T11:32:41;11.47;;;7.83;;
7493;SDS011;3788;49.902;8.590;2022-11-11T11:35:30;10.60;;;7.33;;
7493;SDS011;3788;49.902;8.590;2022-11-11T11:37:58;8.17;;;6.50;;
7493;SDS011;3788;49.902;8.590;2022-11-11T11:40:25;11.77;;;8.60;;
7493;SDS011;3788;49.902;8.590;2022-11-11T11:42:52;13.67;;;9.17;;
7493;SDS011;3788;49.902;8.590;2022-11-11T11:45:20;13.73;;;9.53;;
7493;SDS011;3788;49.902;8.590;2022-11-11T11:47:56;12.60;;;9.40;;
7493;SDS011;3788;49.902;8.590;2022-11-11T11:50:38;10.70;;;8.00;;
7493;SDS011;3788;49.902;8.590;2022-11-11T11:53:17;9.67;;;7.83;;
7493;SDS011;3788;49.902;8.590;2022-11-11T11:55:53;9.97;;;7.37;;
7493;SDS011;3788;49.902;8.590;2022-11-11T11:58:29;11.00;;;7.33;;
7493;SDS011;3788;49.902;8.590;2022-11-11T12:01:04;8.73;;;6.60;;
7493;SDS011;3788;49.902;8.590;2022-11-11T12:06:35;10.07;;;7.27;;
7493;SDS011;3788;49.902;8.590;2022-11-11T12:09:10;11.40;;;7.80;;
7493;SDS011;3788;49.902;8.590;2022-11-11T12:11:48;9.87;;;7.43;;
7493;SDS011;3788;49.902;8.590;2022-11-11T12:17:17;12.03;;;8.27;;
7493;SDS011;3788;49.902;8.590;2022-11-11T12:19:56;13.20;;;8.77;;
7493;SDS011;3788;49.902;8.590;2022-11-11T12:22:43;13.47;;;9.50;;
7493;SDS011;3788;49.902;8.590;2022-11-11T12:25:26;10.20;;;8.13;;
7493;SDS011;3788;49.902;8.590;2022-11-11T12:28:03;13.23;;;8.30;;
7493;SDS011;3788;49.902;8.590;2022-11-11T12:30:50;13.37;;;8.93;;
7493;SDS011;3788;49.902;8.590;2022-11-11T12:33:37;11.30;;;7.93;;
7493;SDS011;3788;49.902;8.590;2022-11-11T12:36:17;10.00;;;7.67;;
7493;SDS011;3788;49.902;8.590;2022-11-11T12:38:52;13.67;;;9.90;;
7493;SDS011;3788;49.902;8.590;2022-11-11T12:41:24;13.60;;;10.33;;
7493;SDS011;3788;49.902;8.590;2022-11-11T12:43:55;12.40;;;9.07;;
7493;SDS011;3788;49.902;8.590;2022-11-11T12:46:32;12.47;;;9.17;;
7493;SDS011;3788;49.902;8.590;2022-11-11T12:49:18;12.77;;;9.07;;
7493;SDS011;3788;49.902;8.590;2022-11-11T12:52:13;12.67;;;9.27;;
7493;SDS011;3788;49.902;8.590;2022-11-11T12:54:54;12.47;;;8.77;;
7493;SDS011;3788;49.902;8.590;2022-11-11T12:57:31;11.57;;;9.63;;
7493;SDS011;3788;49.902;8.590;2022-11-11T13:00:03;11.07;;;8.30;;
7493;SDS011;3788;49.902;8.590;2022-11-11T13:05:25;12.40;;;9.27;;
7493;SDS011;3788;49.902;8.590;2022-11-11T13:08:19;13.97;;;9.60;;
7493;SDS011;3788;49.902;8.590;2022-11-11T13:11:20;18.00;;;12.90;;
7493;SDS011;3788;49.902;8.590;2022-11-11T13:13:59;17.80;;;12.53;;
7493;SDS011;3788;49.902;8.590;2022-11-11T13:16:38;21.70;;;14.40;;
7493;SDS011;3788;49.902;8.590;2022-11-11T13:19:05;17.97;;;11.93;;
7493;SDS011;3788;49.902;8.590;2022-11-11T13:21:44;19.97;;;13.10;;
7493;SDS011;3788;49.902;8.590;2022-11-11T13:24:17;21.17;;;13.13;;
7493;SDS011;3788;49.902;8.590;2022-11-11T13:26:48;18.03;;;12.40;;
7493;SDS011;3788;49.902;8.590;2022-11-11T13:29:28;19.50;;;13.47;;
7493;SDS011;3788;49.902;8.590;2022-11-11T13:32:17;19.07;;;12.97;;
7493;SDS011;3788;49.902;8.590;2022-11-11T13:34:48;16.27;;;11.93;;
7493;SDS011;3788;49.902;8.590;2022-11-11T13:37:18;17.60;;;12.87;;
7493;SDS011;3788;49.902;8.590;2022-11-11T13:39:52;19.17;;;13.63;;
7493;SDS011;3788;49.902;8.590;2022-11-11T13:42:25;22.43;;;15.20;;
7493;SDS011;3788;49.902;8.590;2022-11-11T13:44:55;17.40;;;12.53;;
7493;SDS011;3788;49.902;8.590;2022-11-11T13:47:26;18.57;;;12.87;;
7493;SDS011;3788;49.902;8.590;2022-11-11T13:50:00;19.47;;;13.10;;
7493;SDS011;3788;49.902;8.590;2022-11-11T13:52:33;17.60;;;13.07;;
7493;SDS011;3788;49.902;8.590;2022-11-11T13:55:03;18.83;;;12.63;;
7493;SDS011;3788;49.902;8.590;2022-11-11T13:57:41;19.00;;;13.30;;
7493;SDS011;3788;49.902;8.590;2022-11-11T14:00:23;19.83;;;14.63;;
7493;SDS011;3788;49.902;8.590;2022-11-11T14:05:49;22.33;;;14.93;;
7493;SDS011;3788;49.902;8.590;2022-11-11T14:08:54;20.57;;;13.83;;
7493;SDS011;3788;49.902;8.590;2022-11-11T14:11:25;18.30;;;13.03;;
7493;SDS011;3788;49.902;8.590;2022-11-11T14:13:58;16.27;;;12.03;;
7493;SDS011;3788;49.902;8.590;2022-11-11T14:17:03;16.67;;;12.10;;
7493;SDS011;3788;49.902;8.590;2022-11-11T14:19:36;16.87;;;11.73;;
7493;SDS011;3788;49.902;8.590;2022-11-11T14:22:03;18.77;;;13.77;;
7493;SDS011;3788;49.902;8.590;2022-11-11T14:24:54;17.37;;;12.87;;
7493;SDS011;3788;49.902;8.590;2022-11-11T14:27:36;17.13;;;13.33;;
7493;SDS011;3788;49.902;8.590;2022-11-11T14:30:25;19.53;;;13.73;;
7493;SDS011;3788;49.902;8.590;2022-11-11T14:32:54;19.50;;;14.17;;
7493;SDS011;3788;49.902;8.590;2022-11-11T14:35:28;21.80;;;15.13;;
7493;SDS011;3788;49.902;8.590;2022-11-11T14:40:54;25.57;;;15.07;;
7493;SDS011;3788;49.902;8.590;2022-11-11T14:43:37;22.13;;;15.83;;
7493;SDS011;3788;49.902;8.590;2022-11-11T14:46:08;18.23;;;13.53;;
7493;SDS011;3788;49.902;8.590;2022-11-11T14:57:04;16.23;;;11.93;;
7493;SDS011;3788;49.902;8.590;2022-11-11T14:59:32;19.37;;;12.70;;
7493;SDS011;3788;49.902;8.590;2022-11-11T15:02:02;18.77;;;12.57;;
7493;SDS011;3788;49.902;8.590;2022-11-11T15:04:36;15.87;;;11.23;;
7493;SDS011;3788;49.902;8.590;2022-11-11T15:07:03;21.87;;;14.77;;
7493;SDS011;3788;49.902;8.590;2022-11-11T15:09:42;25.40;;;15.90;;
7493;SDS011;3788;49.902;8.590;2022-11-11T15:12:25;29.00;;;18.00;;
7493;SDS011;3788;49.902;8.590;2022-11-11T15:15:02;26.77;;;17.13;;
7493;SDS011;3788;49.902;8.590;2022-11-11T15:17:38;24.83;;;15.47;;
7493;SDS011;3788;49.902;8.590;2022-11-11T15:20:19;25.83;;;17.43;;
7493;SDS011;3788;49.902;8.590;2022-11-11T15:22:56;22.70;;;15.17;;
7493;SDS011;3788;49.902;8.590;2022-11-11T15:25:36;21.03;;;14.17;;
7493;SDS011;3788;49.902;8.590;2022-11-11T15:28:18;19.03;;;13.73;;
7493;SDS011;3788;49.902;8.590;2022-11-11T15:30:59;19.30;;;13.77;;
7493;SDS011;3788;49.902;8.590;2022-11-11T15:33:39;22.83;;;14.80;;
7493;SDS011;3788;49.902;8.590;2022-11-11T15:36:12;26.63;;;14.73;;
7493;SDS011;3788;49.902;8.590;2022-11-11T15:38:44;24.67;;;15.77;;
7493;SDS011;3788;49.902;8.590;2022-11-11T15:41:19;21.70;;;13.03;;
7493;SDS011;3788;49.902;8.590;2022-11-11T15:43:49;22.27;;;13.73;;
7493;SDS011;3788;49.902;8.590;2022-11-11T15:46:20;19.13;;;13.87;;
7493;SDS011;3788;49.902;8.590;2022-11-11T15:48:51;22.80;;;14.53;;
7493;SDS011;3788;49.902;8.590;2022-11-11T15:51:25;27.60;;;17.00;;
7493;SDS011;3788;49.902;8.590;2022-11-11T15:54:07;22.07;;;14.67;;
7493;SDS011;3788;49.902;8.590;2022-11-11T15:56:50;18.43;;;12.07;;
7493;SDS011;3788;49.902;8.590;2022-11-11T15:59:18;20.73;;;13.33;;
7493;SDS011;3788;49.902;8.590;2022-11-11T16:01:47;19.87;;;14.07;;